sensor_id;sensor_type;location;lat;lon;timestamp;P1;durP1;ratioP1;P2;durP2;ratioP2
25531;SDS011;13429;48.816;9.118;2023-03-05T00:01:13;35.05;;;16.10;;
25531;SDS011;13429;48.816;9.118;2023-03-05T00:03:39;31.25;;;15.07;;
25531;SDS011;13429;48.816;9.118;2023-03-05T00:06:05;33.45;;;17.63;;
25531;SDS011;13429;48.816;9.118;2023-03-05T00:08:31;40.65;;;17.70;;
25531;SDS011;13429;48.816;9.118;2023-03-05T00:10:58;41.45;;;17.85;;
25531;SDS011;13429;48.816;9.118;2023-03-05T00:13:24;38.95;;;17.73;;
25531;SDS011;13429;48.816;9.118;2023-03-05T00:15:50;33.65;;;16.98;;
25531;SDS011;13429;48.816;9.118;2023-03-05T00:18:16;40.65;;;17.55;;
25531;SDS011;13429;48.816;9.118;2023-03-05T00:20:42;38.10;;;17.52;;
25531;SDS011;13429;48.816;9.118;2023-03-05T00:23:08;40.63;;;18.20;;
25531;SDS011;13429;48.816;9.118;2023-03-05T00:25:35;40.72;;;19.55;;
25531;SDS011;13429;48.816;9.118;2023-03-05T00:28:01;35.72;;;17.70;;
25531;SDS011;13429;48.816;9.118;2023-03-05T00:30:27;47.20;;;18.83;;
25531;SDS011;13429;48.816;9.118;2023-03-05T00:32:53;39.40;;;18.90;;
25531;SDS011;13429;48.816;9.118;2023-03-05T00:35:19;38.20;;;19.67;;
25531;SDS011;13429;48.816;9.118;2023-03-05T00:37:45;34.63;;;17.55;;
25531;SDS011;13429;48.816;9.118;2023-03-05T00:40:11;39.47;;;20.13;;
25531;SDS011;13429;48.816;9.118;2023-03-05T00:42:38;38.85;;;19.55;;
25531;SDS011;13429;48.816;9.118;2023-03-05T00:45:04;40.85;;;20.02;;
25531;SDS011;13429;48.816;9.118;2023-03-05T00:47:31;49.13;;;20.60;;
25531;SDS011;13429;48.816;9.118;2023-03-05T00:49:57;43.45;;;19.88;;
25531;SDS011;13429;48.816;9.118;2023-03-05T00:52:23;38.45;;;18.77;;
25531;SDS011;13429;48.816;9.118;2023-03-05T00:54:49;37.00;;;18.75;;
25531;SDS011;13429;48.816;9.118;2023-03-05T00:57:15;33.80;;;16.20;;
25531;SDS011;13429;48.816;9.118;2023-03-05T00:59:41;35.47;;;16.45;;
25531;SDS011;13429;48.816;9.118;2023-03-05T01:02:07;38.72;;;16.83;;
25531;SDS011;13429;48.816;9.118;2023-03-05T01:04:33;36.00;;;18.02;;
25531;SDS011;13429;48.816;9.118;2023-03-05T01:07:02;35.40;;;18.00;;
25531;SDS011;13429;48.816;9.118;2023-03-05T01:09:28;37.58;;;16.15;;
25531;SDS011;13429;48.816;9.118;2023-03-05T01:11:55;36.20;;;15.95;;
25531;SDS011;13429;48.816;9.118;2023-03-05T01:14:21;32.10;;;15.75;;
25531;SDS011;13429;48.816;9.118;2023-03-05T01:16:47;36.55;;;16.27;;
25531;SDS011;13429;48.816;9.118;2023-03-05T01:19:13;26.13;;;14.80;;
25531;SDS011;13429;48.816;9.118;2023-03-05T01:21:39;35.30;;;16.23;;
25531;SDS011;13429;48.816;9.118;2023-03-05T01:24:06;35.30;;;16.42;;
25531;SDS011;13429;48.816;9.118;2023-03-05T01:26:32;32.55;;;14.93;;
25531;SDS011;13429;48.816;9.118;2023-03-05T01:28:58;32.60;;;14.20;;
25531;SDS011;13429;48.816;9.118;2023-03-05T01:31:24;34.08;;;15.57;;
25531;SDS011;13429;48.816;9.118;2023-03-05T01:33:50;34.28;;;14.80;;
25531;SDS011;13429;48.816;9.118;2023-03-05T01:36:17;27.60;;;14.27;;
25531;SDS011;13429;48.816;9.118;2023-03-05T01:38:43;29.70;;;13.15;;
25531;SDS011;13429;48.816;9.118;2023-03-05T01:41:10;35.75;;;14.77;;
25531;SDS011;13429;48.816;9.118;2023-03-05T01:43:36;36.97;;;14.93;;
25531;SDS011;13429;48.816;9.118;2023-03-05T01:48:38;31.63;;;13.60;;
25531;SDS011;13429;48.816;9.118;2023-03-05T01:51:05;29.95;;;13.63;;
25531;SDS011;13429;48.816;9.118;2023-03-05T01:53:31;31.17;;;13.60;;
25531;SDS011;13429;48.816;9.118;2023-03-05T01:55:57;31.98;;;13.48;;
25531;SDS011;13429;48.816;9.118;2023-03-05T01:58:23;41.65;;;14.65;;
25531;SDS011;13429;48.816;9.118;2023-03-05T02:00:51;28.65;;;13.88;;
25531;SDS011;13429;48.816;9.118;2023-03-05T02:03:18;29.67;;;12.27;;
25531;SDS011;13429;48.816;9.118;2023-03-05T02:05:44;30.48;;;12.73;;
25531;SDS011;13429;48.816;9.118;2023-03-05T02:08:12;29.70;;;13.48;;
25531;SDS011;13429;48.816;9.118;2023-03-05T02:10:39;26.90;;;12.50;;
25531;SDS011;13429;48.816;9.118;2023-03-05T02:13:06;27.33;;;11.52;;
25531;SDS011;13429;48.816;9.118;2023-03-05T02:15:33;29.40;;;11.98;;
25531;SDS011;13429;48.816;9.118;2023-03-05T02:17:59;27.98;;;12.95;;
25531;SDS011;13429;48.816;9.118;2023-03-05T02:20:29;27.27;;;12.48;;
25531;SDS011;13429;48.816;9.118;2023-03-05T02:22:55;26.38;;;11.75;;
25531;SDS011;13429;48.816;9.118;2023-03-05T02:25:22;26.35;;;12.27;;
25531;SDS011;13429;48.816;9.118;2023-03-05T02:27:54;32.00;;;13.63;;
25531;SDS011;13429;48.816;9.118;2023-03-05T02:30:21;26.67;;;11.38;;
25531;SDS011;13429;48.816;9.118;2023-03-05T02:32:47;26.60;;;12.90;;
25531;SDS011;13429;48.816;9.118;2023-03-05T02:35:13;25.95;;;11.88;;
25531;SDS011;13429;48.816;9.118;2023-03-05T02:37:39;32.42;;;14.27;;
25531;SDS011;13429;48.816;9.118;2023-03-05T02:40:05;36.88;;;13.02;;
25531;SDS011;13429;48.816;9.118;2023-03-05T02:42:31;28.40;;;12.40;;
25531;SDS011;13429;48.816;9.118;2023-03-05T02:44:59;27.38;;;12.85;;
25531;SDS011;13429;48.816;9.118;2023-03-05T02:47:25;33.88;;;13.02;;
25531;SDS011;13429;48.816;9.118;2023-03-05T02:49:51;36.72;;;15.90;;
25531;SDS011;13429;48.816;9.118;2023-03-05T02:52:17;32.17;;;13.70;;
25531;SDS011;13429;48.816;9.118;2023-03-05T02:54:43;39.45;;;15.18;;
25531;SDS011;13429;48.816;9.118;2023-03-05T02:57:09;28.50;;;12.90;;
25531;SDS011;13429;48.816;9.118;2023-03-05T02:59:35;32.67;;;13.60;;
25531;SDS011;13429;48.816;9.118;2023-03-05T03:02:04;34.13;;;14.23;;
25531;SDS011;13429;48.816;9.118;2023-03-05T03:04:31;34.70;;;13.73;;
25531;SDS011;13429;48.816;9.118;2023-03-05T03:06:57;29.23;;;13.18;;
25531;SDS011;13429;48.816;9.118;2023-03-05T03:09:23;36.90;;;14.93;;
25531;SDS011;13429;48.816;9.118;2023-03-05T03:11:50;27.73;;;12.73;;
25531;SDS011;13429;48.816;9.118;2023-03-05T03:14:16;30.58;;;12.65;;
25531;SDS011;13429;48.816;9.118;2023-03-05T03:16:42;34.53;;;13.60;;
25531;SDS011;13429;48.816;9.118;2023-03-05T03:19:08;28.48;;;12.77;;
25531;SDS011;13429;48.816;9.118;2023-03-05T03:21:34;30.55;;;12.05;;
25531;SDS011;13429;48.816;9.118;2023-03-05T03:24:00;28.38;;;11.57;;
25531;SDS011;13429;48.816;9.118;2023-03-05T03:26:26;30.83;;;12.18;;
25531;SDS011;13429;48.816;9.118;2023-03-05T03:28:53;28.58;;;11.30;;
25531;SDS011;13429;48.816;9.118;2023-03-05T03:31:19;32.55;;;12.85;;
25531;SDS011;13429;48.816;9.118;2023-03-05T03:33:45;31.98;;;13.07;;
25531;SDS011;13429;48.816;9.118;2023-03-05T03:36:11;26.73;;;11.80;;
25531;SDS011;13429;48.816;9.118;2023-03-05T03:38:37;34.33;;;12.65;;
25531;SDS011;13429;48.816;9.118;2023-03-05T03:41:06;32.92;;;12.90;;
25531;SDS011;13429;48.816;9.118;2023-03-05T03:43:33;31.50;;;11.20;;
25531;SDS011;13429;48.816;9.118;2023-03-05T03:45:59;27.15;;;10.73;;
25531;SDS011;13429;48.816;9.118;2023-03-05T03:48:25;29.58;;;11.75;;
25531;SDS011;13429;48.816;9.118;2023-03-05T03:50:51;22.15;;;10.43;;
25531;SDS011;13429;48.816;9.118;2023-03-05T03:53:17;25.60;;;11.30;;
25531;SDS011;13429;48.816;9.118;2023-03-05T03:55:43;24.65;;;10.80;;
25531;SDS011;13429;48.816;9.118;2023-03-05T03:58:11;26.85;;;11.25;;
25531;SDS011;13429;48.816;9.118;2023-03-05T04:00:37;28.38;;;10.82;;
25531;SDS011;13429;48.816;9.118;2023-03-05T04:03:03;27.25;;;11.48;;
25531;SDS011;13429;48.816;9.118;2023-03-05T04:05:29;27.55;;;11.77;;
25531;SDS011;13429;48.816;9.118;2023-03-05T04:07:55;25.38;;;11.23;;
25531;SDS011;13429;48.816;9.118;2023-03-05T04:10:22;25.42;;;10.98;;
25531;SDS011;13429;48.816;9.118;2023-03-05T04:12:48;29.27;;;11.68;;
25531;SDS011;13429;48.816;9.118;2023-03-05T04:15:15;29.52;;;12.27;;
25531;SDS011;13429;48.816;9.118;2023-03-05T04:17:42;27.15;;;11.07;;
25531;SDS011;13429;48.816;9.118;2023-03-05T04:20:08;31.00;;;11.80;;
25531;SDS011;13429;48.816;9.118;2023-03-05T04:22:34;33.83;;;12.20;;
25531;SDS011;13429;48.816;9.118;2023-03-05T04:25:01;35.78;;;12.48;;
25531;SDS011;13429;48.816;9.118;2023-03-05T04:27:31;32.97;;;11.43;;
25531;SDS011;13429;48.816;9.118;2023-03-05T04:29:58;29.05;;;11.90;;
25531;SDS011;13429;48.816;9.118;2023-03-05T04:32:24;27.35;;;10.80;;
25531;SDS011;13429;48.816;9.118;2023-03-05T04:34:50;29.02;;;13.02;;
25531;SDS011;13429;48.816;9.118;2023-03-05T04:37:16;30.58;;;11.15;;
25531;SDS011;13429;48.816;9.118;2023-03-05T04:39:42;30.83;;;11.05;;
25531;SDS011;13429;48.816;9.118;2023-03-05T04:42:08;27.65;;;12.40;;
25531;SDS011;13429;48.816;9.118;2023-03-05T04:44:34;28.05;;;11.43;;
25531;SDS011;13429;48.816;9.118;2023-03-05T04:47:00;26.35;;;12.10;;
25531;SDS011;13429;48.816;9.118;2023-03-05T04:49:26;29.17;;;12.57;;
25531;SDS011;13429;48.816;9.118;2023-03-05T04:51:52;32.42;;;12.43;;
25531;SDS011;13429;48.816;9.118;2023-03-05T04:54:18;29.00;;;11.73;;
25531;SDS011;13429;48.816;9.118;2023-03-05T04:56:44;29.55;;;12.80;;
25531;SDS011;13429;48.816;9.118;2023-03-05T04:59:10;28.50;;;11.57;;
25531;SDS011;13429;48.816;9.118;2023-03-05T05:01:37;32.20;;;12.10;;
25531;SDS011;13429;48.816;9.118;2023-03-05T05:04:03;32.22;;;13.10;;
25531;SDS011;13429;48.816;9.118;2023-03-05T05:06:29;27.52;;;12.23;;
25531;SDS011;13429;48.816;9.118;2023-03-05T05:08:55;34.17;;;13.45;;
25531;SDS011;13429;48.816;9.118;2023-03-05T05:11:21;28.73;;;12.48;;
25531;SDS011;13429;48.816;9.118;2023-03-05T05:13:47;32.28;;;13.48;;
25531;SDS011;13429;48.816;9.118;2023-03-05T05:16:13;27.95;;;13.13;;
25531;SDS011;13429;48.816;9.118;2023-03-05T05:18:40;29.13;;;12.32;;
25531;SDS011;13429;48.816;9.118;2023-03-05T05:21:07;34.92;;;13.45;;
25531;SDS011;13429;48.816;9.118;2023-03-05T05:23:33;23.55;;;11.55;;
25531;SDS011;13429;48.816;9.118;2023-03-05T05:26:00;30.40;;;13.82;;
25531;SDS011;13429;48.816;9.118;2023-03-05T05:28:26;32.20;;;13.82;;
25531;SDS011;13429;48.816;9.118;2023-03-05T05:30:53;25.80;;;11.38;;
25531;SDS011;13429;48.816;9.118;2023-03-05T05:33:19;32.95;;;13.15;;
25531;SDS011;13429;48.816;9.118;2023-03-05T05:35:45;33.35;;;13.30;;
25531;SDS011;13429;48.816;9.118;2023-03-05T05:38:11;31.70;;;13.23;;
25531;SDS011;13429;48.816;9.118;2023-03-05T05:40:37;31.92;;;13.43;;
25531;SDS011;13429;48.816;9.118;2023-03-05T05:43:04;28.70;;;12.68;;
25531;SDS011;13429;48.816;9.118;2023-03-05T05:45:30;31.67;;;13.65;;
25531;SDS011;13429;48.816;9.118;2023-03-05T05:47:56;40.83;;;14.50;;
25531;SDS011;13429;48.816;9.118;2023-03-05T05:50:22;29.42;;;13.43;;
25531;SDS011;13429;48.816;9.118;2023-03-05T05:52:49;28.17;;;12.93;;
25531;SDS011;13429;48.816;9.118;2023-03-05T05:55:16;39.28;;;15.13;;
25531;SDS011;13429;48.816;9.118;2023-03-05T05:57:42;28.98;;;13.02;;
25531;SDS011;13429;48.816;9.118;2023-03-05T06:00:09;37.35;;;13.98;;
25531;SDS011;13429;48.816;9.118;2023-03-05T06:02:39;27.42;;;13.15;;
25531;SDS011;13429;48.816;9.118;2023-03-05T06:05:06;28.83;;;12.90;;
25531;SDS011;13429;48.816;9.118;2023-03-05T06:07:33;29.52;;;13.70;;
25531;SDS011;13429;48.816;9.118;2023-03-05T06:09:59;27.83;;;12.70;;
25531;SDS011;13429;48.816;9.118;2023-03-05T06:12:25;28.98;;;13.02;;
25531;SDS011;13429;48.816;9.118;2023-03-05T06:14:51;30.40;;;12.98;;
25531;SDS011;13429;48.816;9.118;2023-03-05T06:17:18;28.73;;;13.10;;
25531;SDS011;13429;48.816;9.118;2023-03-05T06:19:44;32.03;;;12.85;;
25531;SDS011;13429;48.816;9.118;2023-03-05T06:22:10;31.17;;;14.07;;
25531;SDS011;13429;48.816;9.118;2023-03-05T06:24:36;27.05;;;13.57;;
25531;SDS011;13429;48.816;9.118;2023-03-05T06:27:03;31.15;;;13.63;;
25531;SDS011;13429;48.816;9.118;2023-03-05T06:29:29;35.25;;;15.00;;
25531;SDS011;13429;48.816;9.118;2023-03-05T06:31:55;38.35;;;16.23;;
25531;SDS011;13429;48.816;9.118;2023-03-05T06:34:21;35.65;;;17.85;;
25531;SDS011;13429;48.816;9.118;2023-03-05T06:36:47;42.38;;;19.33;;
25531;SDS011;13429;48.816;9.118;2023-03-05T06:39:13;39.40;;;18.35;;
25531;SDS011;13429;48.816;9.118;2023-03-05T06:41:39;29.83;;;14.77;;
25531;SDS011;13429;48.816;9.118;2023-03-05T06:44:05;31.38;;;16.30;;
25531;SDS011;13429;48.816;9.118;2023-03-05T06:46:32;34.20;;;14.80;;
25531;SDS011;13429;48.816;9.118;2023-03-05T06:48:59;36.55;;;15.48;;
25531;SDS011;13429;48.816;9.118;2023-03-05T06:51:27;30.13;;;13.25;;
25531;SDS011;13429;48.816;9.118;2023-03-05T06:53:54;31.30;;;14.20;;
25531;SDS011;13429;48.816;9.118;2023-03-05T06:56:21;30.63;;;14.18;;
25531;SDS011;13429;48.816;9.118;2023-03-05T06:58:48;33.95;;;14.95;;
25531;SDS011;13429;48.816;9.118;2023-03-05T07:01:14;37.65;;;16.25;;
25531;SDS011;13429;48.816;9.118;2023-03-05T07:03:41;31.75;;;15.07;;
25531;SDS011;13429;48.816;9.118;2023-03-05T07:06:08;32.95;;;15.05;;
25531;SDS011;13429;48.816;9.118;2023-03-05T07:08:35;32.63;;;14.95;;
25531;SDS011;13429;48.816;9.118;2023-03-05T07:11:01;36.25;;;15.07;;
25531;SDS011;13429;48.816;9.118;2023-03-05T07:13:27;29.02;;;13.55;;
25531;SDS011;13429;48.816;9.118;2023-03-05T07:15:53;30.80;;;13.90;;
25531;SDS011;13429;48.816;9.118;2023-03-05T07:18:20;31.70;;;15.05;;
25531;SDS011;13429;48.816;9.118;2023-03-05T07:20:46;30.65;;;13.85;;
25531;SDS011;13429;48.816;9.118;2023-03-05T07:23:12;35.33;;;15.27;;
25531;SDS011;13429;48.816;9.118;2023-03-05T07:25:38;33.75;;;14.93;;
25531;SDS011;13429;48.816;9.118;2023-03-05T07:28:04;29.85;;;14.73;;
25531;SDS011;13429;48.816;9.118;2023-03-05T07:30:31;30.15;;;14.00;;
25531;SDS011;13429;48.816;9.118;2023-03-05T07:32:57;37.03;;;14.93;;
25531;SDS011;13429;48.816;9.118;2023-03-05T07:35:23;32.72;;;14.85;;
25531;SDS011;13429;48.816;9.118;2023-03-05T07:37:49;28.95;;;14.35;;
25531;SDS011;13429;48.816;9.118;2023-03-05T07:40:16;35.90;;;15.55;;
25531;SDS011;13429;48.816;9.118;2023-03-05T07:42:42;38.20;;;15.63;;
25531;SDS011;13429;48.816;9.118;2023-03-05T07:45:09;33.33;;;15.23;;
25531;SDS011;13429;48.816;9.118;2023-03-05T07:47:35;36.75;;;15.55;;
25531;SDS011;13429;48.816;9.118;2023-03-05T07:50:02;33.92;;;14.73;;
25531;SDS011;13429;48.816;9.118;2023-03-05T07:52:28;30.30;;;14.70;;
25531;SDS011;13429;48.816;9.118;2023-03-05T07:54:54;33.72;;;15.30;;
25531;SDS011;13429;48.816;9.118;2023-03-05T07:57:20;36.30;;;14.48;;
25531;SDS011;13429;48.816;9.118;2023-03-05T07:59:46;34.85;;;15.02;;
25531;SDS011;13429;48.816;9.118;2023-03-05T08:02:13;29.98;;;14.13;;
25531;SDS011;13429;48.816;9.118;2023-03-05T08:04:39;40.95;;;17.60;;
25531;SDS011;13429;48.816;9.118;2023-03-05T08:07:07;34.78;;;15.70;;
25531;SDS011;13429;48.816;9.118;2023-03-05T08:09:33;34.13;;;16.33;;
25531;SDS011;13429;48.816;9.118;2023-03-05T08:11:59;30.60;;;13.65;;
25531;SDS011;13429;48.816;9.118;2023-03-05T08:14:25;30.20;;;14.43;;
25531;SDS011;13429;48.816;9.118;2023-03-05T08:16:51;29.45;;;14.35;;
25531;SDS011;13429;48.816;9.118;2023-03-05T08:19:18;27.73;;;14.18;;
25531;SDS011;13429;48.816;9.118;2023-03-05T08:21:44;27.65;;;15.13;;
25531;SDS011;13429;48.816;9.118;2023-03-05T08:24:10;29.67;;;13.82;;
25531;SDS011;13429;48.816;9.118;2023-03-05T08:26:37;31.95;;;15.30;;
25531;SDS011;13429;48.816;9.118;2023-03-05T08:29:04;29.73;;;14.55;;
25531;SDS011;13429;48.816;9.118;2023-03-05T08:31:30;33.25;;;15.55;;
25531;SDS011;13429;48.816;9.118;2023-03-05T08:33:57;33.33;;;15.02;;
25531;SDS011;13429;48.816;9.118;2023-03-05T08:36:24;31.15;;;15.10;;
25531;SDS011;13429;48.816;9.118;2023-03-05T08:38:50;35.83;;;14.95;;
25531;SDS011;13429;48.816;9.118;2023-03-05T08:41:16;32.75;;;16.58;;
25531;SDS011;13429;48.816;9.118;2023-03-05T08:43:42;37.17;;;15.20;;
25531;SDS011;13429;48.816;9.118;2023-03-05T08:46:09;29.60;;;14.38;;
25531;SDS011;13429;48.816;9.118;2023-03-05T08:48:36;37.95;;;16.63;;
25531;SDS011;13429;48.816;9.118;2023-03-05T08:51:09;35.70;;;17.42;;
25531;SDS011;13429;48.816;9.118;2023-03-05T08:53:36;35.40;;;15.35;;
25531;SDS011;13429;48.816;9.118;2023-03-05T08:56:05;30.27;;;14.07;;
25531;SDS011;13429;48.816;9.118;2023-03-05T08:58:32;40.22;;;15.57;;
25531;SDS011;13429;48.816;9.118;2023-03-05T09:00:59;35.95;;;14.27;;
25531;SDS011;13429;48.816;9.118;2023-03-05T09:03:25;29.77;;;15.45;;
25531;SDS011;13429;48.816;9.118;2023-03-05T09:05:51;31.23;;;14.50;;
25531;SDS011;13429;48.816;9.118;2023-03-05T09:08:17;35.67;;;18.25;;
25531;SDS011;13429;48.816;9.118;2023-03-05T09:10:47;36.95;;;14.18;;
25531;SDS011;13429;48.816;9.118;2023-03-05T09:13:13;34.53;;;15.10;;
25531;SDS011;13429;48.816;9.118;2023-03-05T09:15:39;34.10;;;15.23;;
25531;SDS011;13429;48.816;9.118;2023-03-05T09:18:05;34.78;;;14.95;;
25531;SDS011;13429;48.816;9.118;2023-03-05T09:20:33;29.63;;;13.30;;
25531;SDS011;13429;48.816;9.118;2023-03-05T09:22:59;31.92;;;13.98;;
25531;SDS011;13429;48.816;9.118;2023-03-05T09:25:25;29.35;;;14.38;;
25531;SDS011;13429;48.816;9.118;2023-03-05T09:27:51;31.13;;;14.23;;
25531;SDS011;13429;48.816;9.118;2023-03-05T09:30:17;27.13;;;14.15;;
25531;SDS011;13429;48.816;9.118;2023-03-05T09:32:43;29.63;;;13.15;;
25531;SDS011;13429;48.816;9.118;2023-03-05T09:35:09;30.27;;;13.23;;
25531;SDS011;13429;48.816;9.118;2023-03-05T09:37:35;40.17;;;15.98;;
25531;SDS011;13429;48.816;9.118;2023-03-05T09:40:02;36.88;;;15.65;;
25531;SDS011;13429;48.816;9.118;2023-03-05T09:42:50;29.90;;;13.88;;
25531;SDS011;13429;48.816;9.118;2023-03-05T09:45:24;34.83;;;13.97;;
25531;SDS011;13429;48.816;9.118;2023-03-05T09:50:32;34.47;;;15.13;;
25531;SDS011;13429;48.816;9.118;2023-03-05T09:54:02;33.25;;;14.52;;
25531;SDS011;13429;48.816;9.118;2023-03-05T09:55:59;32.20;;;14.30;;
25531;SDS011;13429;48.816;9.118;2023-03-05T09:58:43;33.75;;;14.15;;
25531;SDS011;13429;48.816;9.118;2023-03-05T10:01:18;31.15;;;14.40;;
25531;SDS011;13429;48.816;9.118;2023-03-05T10:09:41;30.50;;;13.63;;
25531;SDS011;13429;48.816;9.118;2023-03-05T10:12:12;29.67;;;14.45;;
25531;SDS011;13429;48.816;9.118;2023-03-05T10:14:39;28.25;;;12.13;;
25531;SDS011;13429;48.816;9.118;2023-03-05T10:22:41;27.50;;;12.82;;
25531;SDS011;13429;48.816;9.118;2023-03-05T10:27:48;33.42;;;14.77;;
25531;SDS011;13429;48.816;9.118;2023-03-05T10:42:57;34.53;;;16.48;;
25531;SDS011;13429;48.816;9.118;2023-03-05T10:45:44;32.70;;;14.30;;
25531;SDS011;13429;48.816;9.118;2023-03-05T10:50:44;38.13;;;15.77;;
25531;SDS011;13429;48.816;9.118;2023-03-05T10:55:43;33.90;;;14.35;;
25531;SDS011;13429;48.816;9.118;2023-03-05T10:58:10;27.85;;;14.23;;
25531;SDS011;13429;48.816;9.118;2023-03-05T11:00:36;36.50;;;15.68;;
25531;SDS011;13429;48.816;9.118;2023-03-05T11:03:07;29.73;;;14.30;;
25531;SDS011;13429;48.816;9.118;2023-03-05T11:10:44;34.33;;;14.90;;
25531;SDS011;13429;48.816;9.118;2023-03-05T11:13:19;31.27;;;14.75;;
25531;SDS011;13429;48.816;9.118;2023-03-05T11:15:57;28.45;;;14.55;;
25531;SDS011;13429;48.816;9.118;2023-03-05T11:18:23;26.75;;;13.00;;
25531;SDS011;13429;48.816;9.118;2023-03-05T11:20:50;32.03;;;15.23;;
25531;SDS011;13429;48.816;9.118;2023-03-05T11:23:23;29.50;;;14.60;;
25531;SDS011;13429;48.816;9.118;2023-03-05T11:25:56;34.92;;;15.55;;
25531;SDS011;13429;48.816;9.118;2023-03-05T11:28:25;35.30;;;15.88;;
25531;SDS011;13429;48.816;9.118;2023-03-05T11:31:33;35.58;;;16.20;;
25531;SDS011;13429;48.816;9.118;2023-03-05T11:33:52;35.20;;;18.25;;
25531;SDS011;13429;48.816;9.118;2023-03-05T11:36:24;44.40;;;19.50;;
25531;SDS011;13429;48.816;9.118;2023-03-05T11:38:51;33.13;;;17.27;;
25531;SDS011;13429;48.816;9.118;2023-03-05T11:41:19;40.13;;;18.67;;
25531;SDS011;13429;48.816;9.118;2023-03-05T11:43:47;36.40;;;18.20;;
25531;SDS011;13429;48.816;9.118;2023-03-05T11:46:15;40.72;;;16.98;;
25531;SDS011;13429;48.816;9.118;2023-03-05T11:48:42;37.33;;;18.30;;
25531;SDS011;13429;48.816;9.118;2023-03-05T11:51:33;38.35;;;17.35;;
25531;SDS011;13429;48.816;9.118;2023-03-05T11:53:58;32.70;;;15.80;;
25531;SDS011;13429;48.816;9.118;2023-03-05T11:56:26;34.30;;;13.50;;
25531;SDS011;13429;48.816;9.118;2023-03-05T11:58:59;31.40;;;13.25;;
25531;SDS011;13429;48.816;9.118;2023-03-05T12:01:28;26.02;;;13.48;;
25531;SDS011;13429;48.816;9.118;2023-03-05T12:03:55;31.27;;;15.23;;
25531;SDS011;13429;48.816;9.118;2023-03-05T12:08:52;24.58;;;12.07;;
25531;SDS011;13429;48.816;9.118;2023-03-05T12:11:22;26.45;;;13.00;;
25531;SDS011;13429;48.816;9.118;2023-03-05T12:21:39;27.27;;;13.32;;
25531;SDS011;13429;48.816;9.118;2023-03-05T12:31:58;32.92;;;13.93;;
25531;SDS011;13429;48.816;9.118;2023-03-05T12:47:38;31.10;;;13.40;;
25531;SDS011;13429;48.816;9.118;2023-03-05T12:50:07;30.42;;;12.98;;
25531;SDS011;13429;48.816;9.118;2023-03-05T12:52:51;22.70;;;11.50;;
25531;SDS011;13429;48.816;9.118;2023-03-05T12:55:18;27.83;;;13.82;;
25531;SDS011;13429;48.816;9.118;2023-03-05T12:57:48;24.80;;;12.70;;
25531;SDS011;13429;48.816;9.118;2023-03-05T13:00:27;34.08;;;14.45;;
25531;SDS011;13429;48.816;9.118;2023-03-05T13:02:57;24.50;;;12.63;;
25531;SDS011;13429;48.816;9.118;2023-03-05T13:05:29;29.02;;;13.18;;
25531;SDS011;13429;48.816;9.118;2023-03-05T13:10:39;27.67;;;13.07;;
25531;SDS011;13429;48.816;9.118;2023-03-05T13:13:10;24.67;;;10.65;;
25531;SDS011;13429;48.816;9.118;2023-03-05T13:15:40;30.33;;;12.85;;
25531;SDS011;13429;48.816;9.118;2023-03-05T13:18:11;29.13;;;13.10;;
25531;SDS011;13429;48.816;9.118;2023-03-05T13:20:40;25.38;;;12.00;;
25531;SDS011;13429;48.816;9.118;2023-03-05T13:25:40;27.95;;;12.73;;
25531;SDS011;13429;48.816;9.118;2023-03-05T13:28:09;29.73;;;12.10;;
25531;SDS011;13429;48.816;9.118;2023-03-05T13:30:35;25.55;;;12.10;;
25531;SDS011;13429;48.816;9.118;2023-03-05T13:33:02;25.42;;;12.35;;
25531;SDS011;13429;48.816;9.118;2023-03-05T13:35:30;26.60;;;12.50;;
25531;SDS011;13429;48.816;9.118;2023-03-05T13:37:56;36.13;;;15.05;;
25531;SDS011;13429;48.816;9.118;2023-03-05T13:40:27;26.58;;;12.02;;
25531;SDS011;13429;48.816;9.118;2023-03-05T13:42:54;28.30;;;11.60;;
25531;SDS011;13429;48.816;9.118;2023-03-05T13:48:05;25.25;;;11.45;;
25531;SDS011;13429;48.816;9.118;2023-03-05T13:50:40;22.55;;;11.38;;
25531;SDS011;13429;48.816;9.118;2023-03-05T13:53:17;29.98;;;13.27;;
25531;SDS011;13429;48.816;9.118;2023-03-05T13:55:45;39.50;;;14.80;;
25531;SDS011;13429;48.816;9.118;2023-03-05T14:03:41;30.90;;;14.10;;
25531;SDS011;13429;48.816;9.118;2023-03-05T14:06:10;25.63;;;14.25;;
25531;SDS011;13429;48.816;9.118;2023-03-05T14:08:37;31.70;;;14.13;;
25531;SDS011;13429;48.816;9.118;2023-03-05T14:11:15;32.95;;;12.38;;
25531;SDS011;13429;48.816;9.118;2023-03-05T14:13:42;28.20;;;12.05;;
25531;SDS011;13429;48.816;9.118;2023-03-05T14:16:13;28.33;;;12.82;;
25531;SDS011;13429;48.816;9.118;2023-03-05T14:19:01;26.40;;;12.68;;
25531;SDS011;13429;48.816;9.118;2023-03-05T14:21:41;25.67;;;11.00;;
25531;SDS011;13429;48.816;9.118;2023-03-05T14:24:13;26.67;;;11.93;;
25531;SDS011;13429;48.816;9.118;2023-03-05T14:26:40;22.33;;;11.40;;
25531;SDS011;13429;48.816;9.118;2023-03-05T14:29:13;22.10;;;11.07;;
25531;SDS011;13429;48.816;9.118;2023-03-05T14:31:45;24.42;;;11.95;;
25531;SDS011;13429;48.816;9.118;2023-03-05T14:34:20;26.50;;;12.10;;
25531;SDS011;13429;48.816;9.118;2023-03-05T14:36:47;30.20;;;14.38;;
25531;SDS011;13429;48.816;9.118;2023-03-05T14:41:52;34.10;;;16.20;;
25531;SDS011;13429;48.816;9.118;2023-03-05T14:44:18;33.63;;;14.63;;
25531;SDS011;13429;48.816;9.118;2023-03-05T14:46:48;31.52;;;16.42;;
25531;SDS011;13429;48.816;9.118;2023-03-05T14:49:15;28.23;;;14.82;;
25531;SDS011;13429;48.816;9.118;2023-03-05T14:51:41;34.13;;;14.25;;
25531;SDS011;13429;48.816;9.118;2023-03-05T14:54:18;34.78;;;14.95;;
25531;SDS011;13429;48.816;9.118;2023-03-05T14:56:44;38.10;;;16.38;;
25531;SDS011;13429;48.816;9.118;2023-03-05T14:59:11;32.58;;;14.93;;
25531;SDS011;13429;48.816;9.118;2023-03-05T15:01:37;33.55;;;15.57;;
25531;SDS011;13429;48.816;9.118;2023-03-05T15:04:03;28.63;;;14.35;;
25531;SDS011;13429;48.816;9.118;2023-03-05T15:06:30;34.50;;;16.63;;
25531;SDS011;13429;48.816;9.118;2023-03-05T15:08:58;37.03;;;17.17;;
25531;SDS011;13429;48.816;9.118;2023-03-05T15:11:24;30.63;;;14.10;;
25531;SDS011;13429;48.816;9.118;2023-03-05T15:13:51;34.83;;;14.05;;
25531;SDS011;13429;48.816;9.118;2023-03-05T15:16:17;26.20;;;13.40;;
25531;SDS011;13429;48.816;9.118;2023-03-05T15:18:43;32.50;;;15.02;;
25531;SDS011;13429;48.816;9.118;2023-03-05T15:21:10;32.15;;;14.63;;
25531;SDS011;13429;48.816;9.118;2023-03-05T15:23:36;31.20;;;15.68;;
25531;SDS011;13429;48.816;9.118;2023-03-05T15:26:06;30.75;;;15.93;;
25531;SDS011;13429;48.816;9.118;2023-03-05T15:28:33;32.63;;;15.00;;
25531;SDS011;13429;48.816;9.118;2023-03-05T15:31:00;33.10;;;15.40;;
25531;SDS011;13429;48.816;9.118;2023-03-05T15:33:26;29.63;;;15.70;;
25531;SDS011;13429;48.816;9.118;2023-03-05T15:35:53;39.08;;;17.10;;
25531;SDS011;13429;48.816;9.118;2023-03-05T15:38:19;42.78;;;17.42;;
25531;SDS011;13429;48.816;9.118;2023-03-05T15:40:45;40.92;;;17.83;;
25531;SDS011;13429;48.816;9.118;2023-03-05T15:43:11;39.30;;;18.73;;
25531;SDS011;13429;48.816;9.118;2023-03-05T15:45:38;34.97;;;16.35;;
25531;SDS011;13429;48.816;9.118;2023-03-05T15:48:04;32.08;;;15.48;;
25531;SDS011;13429;48.816;9.118;2023-03-05T15:50:30;36.70;;;17.60;;
25531;SDS011;13429;48.816;9.118;2023-03-05T15:52:56;32.72;;;16.30;;